sensor_id;sensor_type;location;lat;lon;timestamp;pressure;altitude;pressure_sealevel;temperature;humidity
69187;BME280;56301;56.864;60.554;2022-09-12T00:03:35;98825.19;;;21.31;55.45
69187;BME280;56301;56.864;60.554;2022-09-12T00:05:58;98833.44;;;21.30;55.33
69187;BME280;56301;56.864;60.554;2022-09-12T00:08:20;98835.28;;;21.29;55.12
69187;BME280;56301;56.864;60.554;2022-09-12T00:10:43;98830.94;;;21.28;54.95
69187;BME280;56301;56.864;60.554;2022-09-12T00:13:05;98839.66;;;21.30;55.26
69187;BME280;56301;56.864;60.554;2022-09-12T00:15:28;98843.06;;;21.32;55.35
69187;BME280;56301;56.864;60.554;2022-09-12T00:17:50;98846.44;;;21.34;55.20
69187;BME280;56301;56.864;60.554;2022-09-12T00:20:12;98838.75;;;21.39;55.01
69187;BME280;56301;56.864;60.554;2022-09-12T00:22:35;98849.53;;;21.39;54.94
69187;BME280;56301;56.864;60.554;2022-09-12T00:24:58;98849.13;;;21.34;54.83
69187;BME280;56301;56.864;60.554;2022-09-12T00:27:20;98846.44;;;21.34;55.30
69187;BME280;56301;56.864;60.554;2022-09-12T00:29:43;98850.16;;;21.33;54.57
69187;BME280;56301;56.864;60.554;2022-09-12T00:32:05;98848.75;;;21.29;55.35
69187;BME280;56301;56.864;60.554;2022-09-12T00:34:28;98853.97;;;21.31;54.53
69187;BME280;56301;56.864;60.554;2022-09-12T00:36:50;98852.47;;;21.28;54.44
69187;BME280;56301;56.864;60.554;2022-09-12T00:39:16;98854.13;;;21.29;54.96
69187;BME280;56301;56.864;60.554;2022-09-12T00:41:38;98861.50;;;21.27;54.71
69187;BME280;56301;56.864;60.554;2022-09-12T00:44:02;98856.31;;;21.26;54.83
69187;BME280;56301;56.864;60.554;2022-09-12T00:46:30;98855.59;;;21.24;54.77
69187;BME280;56301;56.864;60.554;2022-09-12T00:48:59;98863.69;;;21.24;54.51
69187;BME280;56301;56.864;60.554;2022-09-12T00:51:22;98853.78;;;21.24;55.57
69187;BME280;56301;56.864;60.554;2022-09-12T00:53:45;98866.91;;;21.27;55.19
69187;BME280;56301;56.864;60.554;2022-09-12T00:56:10;98861.19;;;21.30;54.89
69187;BME280;56301;56.864;60.554;2022-09-12T00:58:39;98867.00;;;21.35;55.38
69187;BME280;56301;56.864;60.554;2022-09-12T01:01:03;98868.81;;;21.35;54.26
69187;BME280;56301;56.864;60.554;2022-09-12T01:03:25;98869.28;;;21.30;54.65
69187;BME280;56301;56.864;60.554;2022-09-12T01:08:19;98878.34;;;21.29;55.22
69187;BME280;56301;56.864;60.554;2022-09-12T01:10:42;98874.66;;;21.30;54.89
69187;BME280;56301;56.864;60.554;2022-09-12T01:13:05;98874.97;;;21.27;55.17
69187;BME280;56301;56.864;60.554;2022-09-12T01:15:28;98883.88;;;21.28;55.81
69187;BME280;56301;56.864;60.554;2022-09-12T01:20:33;98877.81;;;21.26;55.14
69187;BME280;56301;56.864;60.554;2022-09-12T01:37:30;98889.91;;;21.22;55.40
69187;BME280;56301;56.864;60.554;2022-09-12T01:42:39;98894.47;;;21.21;55.72
69187;BME280;56301;56.864;60.554;2022-09-12T01:45:07;98895.44;;;21.20;55.92
69187;BME280;56301;56.864;60.554;2022-09-12T01:47:41;98890.22;;;21.19;56.21
69187;BME280;56301;56.864;60.554;2022-09-12T01:52:36;98891.91;;;21.20;55.53
69187;BME280;56301;56.864;60.554;2022-09-12T01:55:10;98901.81;;;21.19;55.36
69187;BME280;56301;56.864;60.554;2022-09-12T01:57:36;98903.84;;;21.17;55.52
69187;BME280;56301;56.864;60.554;2022-09-12T02:00:03;98909.22;;;21.17;55.21
69187;BME280;56301;56.864;60.554;2022-09-12T02:02:55;98910.91;;;21.18;55.16
69187;BME280;56301;56.864;60.554;2022-09-12T02:05:22;98908.34;;;21.16;56.06
69187;BME280;56301;56.864;60.554;2022-09-12T02:07:54;98920.97;;;21.16;55.91
69187;BME280;56301;56.864;60.554;2022-09-12T02:10:22;98926.34;;;21.16;55.32
69187;BME280;56301;56.864;60.554;2022-09-12T02:12:48;98908.47;;;21.07;55.59
69187;BME280;56301;56.864;60.554;2022-09-12T02:15:13;98928.19;;;21.15;55.25
69187;BME280;56301;56.864;60.554;2022-09-12T02:17:40;98923.00;;;21.14;55.46
69187;BME280;56301;56.864;60.554;2022-09-12T02:20:05;98921.44;;;21.11;55.09
69187;BME280;56301;56.864;60.554;2022-09-12T02:22:29;98930.53;;;21.10;55.33
69187;BME280;56301;56.864;60.554;2022-09-12T02:24:54;98930.53;;;21.10;55.19
69187;BME280;56301;56.864;60.554;2022-09-12T02:27:18;98936.88;;;21.09;55.35
69187;BME280;56301;56.864;60.554;2022-09-12T02:29:42;98933.34;;;21.09;55.09
69187;BME280;56301;56.864;60.554;2022-09-12T02:32:10;98937.06;;;21.08;54.92
69187;BME280;56301;56.864;60.554;2022-09-12T02:39:40;98945.13;;;21.08;55.28
69187;BME280;56301;56.864;60.554;2022-09-12T02:42:03;98937.06;;;21.08;55.18
69187;BME280;56301;56.864;60.554;2022-09-12T02:44:26;98943.28;;;21.08;54.63
69187;BME280;56301;56.864;60.554;2022-09-12T02:46:50;98940.75;;;21.07;54.82
69187;BME280;56301;56.864;60.554;2022-09-12T02:49:14;98942.75;;;21.05;55.38
69187;BME280;56301;56.864;60.554;2022-09-12T02:51:37;98941.75;;;21.06;54.85
69187;BME280;56301;56.864;60.554;2022-09-12T02:54:00;98941.91;;;21.04;55.08
69187;BME280;56301;56.864;60.554;2022-09-12T02:56:27;98941.91;;;21.04;55.43
69187;BME280;56301;56.864;60.554;2022-09-12T02:58:50;98948.97;;;21.05;55.09
69187;BME280;56301;56.864;60.554;2022-09-12T03:01:30;98943.75;;;21.04;55.25
69187;BME280;56301;56.864;60.554;2022-09-12T03:06:39;98950.16;;;21.03;55.46
69187;BME280;56301;56.864;60.554;2022-09-12T03:16:37;98960.91;;;21.03;54.75
69187;BME280;56301;56.864;60.554;2022-09-12T03:21:47;98956.19;;;21.05;54.77
69187;BME280;56301;56.864;60.554;2022-09-12T03:24:15;98949.97;;;21.04;54.81
69187;BME280;56301;56.864;60.554;2022-09-12T03:26:41;98959.91;;;21.04;54.99
69187;BME280;56301;56.864;60.554;2022-09-12T03:29:05;98957.22;;;21.04;55.09
69187;BME280;56301;56.864;60.554;2022-09-12T03:31:29;98956.38;;;21.03;54.60
69187;BME280;56301;56.864;60.554;2022-09-12T03:33:52;98958.88;;;21.05;55.55
69187;BME280;56301;56.864;60.554;2022-09-12T03:36:15;98956.59;;;21.10;55.46
69187;BME280;56301;56.864;60.554;2022-09-12T03:38:40;98954.56;;;21.12;55.13
69187;BME280;56301;56.864;60.554;2022-09-12T03:41:03;98962.66;;;21.12;55.15
69187;BME280;56301;56.864;60.554;2022-09-12T03:43:25;98966.03;;;21.14;55.87
69187;BME280;56301;56.864;60.554;2022-09-12T03:45:51;98962.34;;;21.15;55.65
69187;BME280;56301;56.864;60.554;2022-09-12T03:48:13;98970.41;;;21.15;55.28
69187;BME280;56301;56.864;60.554;2022-09-12T03:50:35;98964.03;;;21.16;55.54
69187;BME280;56301;56.864;60.554;2022-09-12T03:52:58;98963.88;;;21.18;55.02
69187;BME280;56301;56.864;60.554;2022-09-12T03:55:20;98963.88;;;21.18;55.34
69187;BME280;56301;56.864;60.554;2022-09-12T03:57:43;98964.72;;;21.18;55.02
69187;BME280;56301;56.864;60.554;2022-09-12T04:00:05;98968.09;;;21.20;55.42
69187;BME280;56301;56.864;60.554;2022-09-12T04:02:34;98964.56;;;21.20;55.45
69187;BME280;56301;56.864;60.554;2022-09-12T04:04:57;98970.78;;;21.20;55.48
69187;BME280;56301;56.864;60.554;2022-09-12T04:07:19;98968.97;;;21.21;55.27
69187;BME280;56301;56.864;60.554;2022-09-12T04:09:42;98971.78;;;21.19;55.91
69187;BME280;56301;56.864;60.554;2022-09-12T04:12:05;98970.78;;;21.20;55.80
69187;BME280;56301;56.864;60.554;2022-09-12T04:14:27;98970.94;;;21.19;54.92
69187;BME280;56301;56.864;60.554;2022-09-12T04:16:50;98977.16;;;21.19;54.97
69187;BME280;56301;56.864;60.554;2022-09-12T04:19:12;98978.19;;;21.18;54.85
69187;BME280;56301;56.864;60.554;2022-09-12T04:21:34;98981.72;;;21.19;54.44
69187;BME280;56301;56.864;60.554;2022-09-12T04:23:57;98993.31;;;21.19;54.58
69187;BME280;56301;56.864;60.554;2022-09-12T04:26:19;98995.00;;;21.20;54.65
69187;BME280;56301;56.864;60.554;2022-09-12T04:28:42;98997.84;;;21.19;54.99
69187;BME280;56301;56.864;60.554;2022-09-12T04:31:05;98996.00;;;21.19;54.38
69187;BME280;56301;56.864;60.554;2022-09-12T04:33:28;99004.06;;;21.19;54.76
69187;BME280;56301;56.864;60.554;2022-09-12T04:35:52;99004.91;;;21.20;54.16
69187;BME280;56301;56.864;60.554;2022-09-12T04:38:14;99007.59;;;21.20;54.74
69187;BME280;56301;56.864;60.554;2022-09-12T04:40:36;99008.44;;;21.20;54.22
69187;BME280;56301;56.864;60.554;2022-09-12T04:42:59;99007.59;;;21.20;54.07
69187;BME280;56301;56.864;60.554;2022-09-12T04:45:21;99014.84;;;21.19;54.20
69187;BME280;56301;56.864;60.554;2022-09-12T04:47:44;99015.69;;;21.20;54.23
69187;BME280;56301;56.864;60.554;2022-09-12T04:50:06;99012.16;;;21.19;54.50
69187;BME280;56301;56.864;60.554;2022-09-12T04:52:29;99009.47;;;21.19;54.00
69187;BME280;56301;56.864;60.554;2022-09-12T04:54:51;99014.84;;;21.19;54.29
69187;BME280;56301;56.864;60.554;2022-09-12T04:57:14;99016.69;;;21.19;54.43
69187;BME280;56301;56.864;60.554;2022-09-12T04:59:37;99015.69;;;21.20;54.11
69187;BME280;56301;56.864;60.554;2022-09-12T05:01:59;99022.06;;;21.19;53.91
69187;BME280;56301;56.864;60.554;2022-09-12T05:04:21;99020.22;;;21.19;54.02
69187;BME280;56301;56.864;60.554;2022-09-12T05:06:44;99027.28;;;21.20;54.21
69187;BME280;56301;56.864;60.554;2022-09-12T05:09:07;99023.75;;;21.20;53.95
69187;BME280;56301;56.864;60.554;2022-09-12T05:11:32;99021.06;;;21.20;54.58
69187;BME280;56301;56.864;60.554;2022-09-12T05:13:55;99025.59;;;21.19;54.55
69187;BME280;56301;56.864;60.554;2022-09-12T05:16:17;99021.06;;;21.20;54.52
69187;BME280;56301;56.864;60.554;2022-09-12T05:18:40;99029.13;;;21.20;54.16
69187;BME280;56301;56.864;60.554;2022-09-12T05:21:04;99024.59;;;21.20;53.62
69187;BME280;56301;56.864;60.554;2022-09-12T05:23:27;99021.91;;;21.20;54.49
69187;BME280;56301;56.864;60.554;2022-09-12T05:25:50;99027.28;;;21.20;54.04
69187;BME280;56301;56.864;60.554;2022-09-12T05:28:13;99016.53;;;21.20;53.88
69187;BME280;56301;56.864;60.554;2022-09-12T05:30:35;99026.31;;;21.21;53.69
69187;BME280;56301;56.864;60.554;2022-09-12T05:32:57;99023.63;;;21.21;54.48
69187;BME280;56301;56.864;60.554;2022-09-12T05:35:20;99030.69;;;21.22;54.61
69187;BME280;56301;56.864;60.554;2022-09-12T05:37:42;99029.84;;;21.22;54.03
69187;BME280;56301;56.864;60.554;2022-09-12T05:40:05;99031.53;;;21.23;54.26
69187;BME280;56301;56.864;60.554;2022-09-12T05:42:28;99025.13;;;21.24;53.45
69187;BME280;56301;56.864;60.554;2022-09-12T05:44:51;99026.97;;;21.23;53.98
69187;BME280;56301;56.864;60.554;2022-09-12T05:47:13;99024.28;;;21.23;53.35
69187;BME280;56301;56.864;60.554;2022-09-12T05:49:35;99032.38;;;21.23;53.58
69187;BME280;56301;56.864;60.554;2022-09-12T05:51:58;99036.59;;;21.26;53.47
69187;BME280;56301;56.864;60.554;2022-09-12T05:54:20;99036.78;;;21.24;53.34
69187;BME280;56301;56.864;60.554;2022-09-12T05:56:43;99033.06;;;21.25;53.52
69187;BME280;56301;56.864;60.554;2022-09-12T05:59:07;99028.69;;;21.24;53.15
69187;BME280;56301;56.864;60.554;2022-09-12T06:01:30;99036.59;;;21.26;53.68
69187;BME280;56301;56.864;60.554;2022-09-12T06:03:54;99035.75;;;21.25;53.68
69187;BME280;56301;56.864;60.554;2022-09-12T06:06:19;99027.53;;;21.27;53.00
69187;BME280;56301;56.864;60.554;2022-09-12T06:08:43;99032.91;;;21.27;53.93
69187;BME280;56301;56.864;60.554;2022-09-12T06:11:06;99026.50;;;21.28;53.23
69187;BME280;56301;56.864;60.554;2022-09-12T06:13:32;99037.13;;;21.29;53.07
69187;BME280;56301;56.864;60.554;2022-09-12T06:15:55;99029.06;;;21.29;53.70
69187;BME280;56301;56.864;60.554;2022-09-12T06:18:23;99035.13;;;21.31;52.79
69187;BME280;56301;56.864;60.554;2022-09-12T06:20:45;99030.63;;;21.32;53.29
69187;BME280;56301;56.864;60.554;2022-09-12T06:23:08;99026.91;;;21.33;53.10
69187;BME280;56301;56.864;60.554;2022-09-12T06:25:30;99035.69;;;21.35;53.21
69187;BME280;56301;56.864;60.554;2022-09-12T06:27:52;99033.88;;;21.35;52.92
69187;BME280;56301;56.864;60.554;2022-09-12T06:30:15;99035.56;;;21.36;53.08
69187;BME280;56301;56.864;60.554;2022-09-12T06:32:37;99035.38;;;21.38;52.81
69187;BME280;56301;56.864;60.554;2022-09-12T06:35:00;99030.84;;;21.38;52.72
69187;BME280;56301;56.864;60.554;2022-09-12T06:37:22;99032.56;;;21.39;53.08
69187;BME280;56301;56.864;60.554;2022-09-12T06:39:45;99035.91;;;21.42;52.63
69187;BME280;56301;56.864;60.554;2022-09-12T06:42:07;99028.84;;;21.41;52.57
69187;BME280;56301;56.864;60.554;2022-09-12T06:44:31;99033.22;;;21.42;53.57
69187;BME280;56301;56.864;60.554;2022-09-12T06:46:53;99036.63;;;21.44;52.65
69187;BME280;56301;56.864;60.554;2022-09-12T06:49:16;99036.63;;;21.44;52.54
69187;BME280;56301;56.864;60.554;2022-09-12T06:51:38;99034.78;;;21.44;52.77
69187;BME280;56301;56.864;60.554;2022-09-12T06:54:01;99041.84;;;21.45;52.74
69187;BME280;56301;56.864;60.554;2022-09-12T06:56:24;99033.63;;;21.47;53.41
69187;BME280;56301;56.864;60.554;2022-09-12T06:58:48;99028.25;;;21.47;52.72
69187;BME280;56301;56.864;60.554;2022-09-12T07:01:12;99024.53;;;21.48;52.77
69187;BME280;56301;56.864;60.554;2022-09-12T07:03:35;99034.47;;;21.47;52.95
69187;BME280;56301;56.864;60.554;2022-09-12T07:06:02;99026.22;;;21.49;52.75
69187;BME280;56301;56.864;60.554;2022-09-12T07:08:24;99020.00;;;21.48;53.60
69187;BME280;56301;56.864;60.554;2022-09-12T07:10:47;99025.25;;;21.50;52.86
69187;BME280;56301;56.864;60.554;2022-09-12T07:13:09;99024.22;;;21.51;53.13
69187;BME280;56301;56.864;60.554;2022-09-12T07:15:33;99024.22;;;21.51;53.41
69187;BME280;56301;56.864;60.554;2022-09-12T07:17:55;99023.22;;;21.52;53.15
69187;BME280;56301;56.864;60.554;2022-09-12T07:20:18;99031.28;;;21.52;53.36
69187;BME280;56301;56.864;60.554;2022-09-12T07:22:40;99025.06;;;21.51;53.23
69187;BME280;56301;56.864;60.554;2022-09-12T07:25:02;99027.59;;;21.53;53.74
69187;BME280;56301;56.864;60.554;2022-09-12T07:27:25;99027.59;;;21.53;54.03
69187;BME280;56301;56.864;60.554;2022-09-12T07:29:47;99029.44;;;21.52;54.56
69187;BME280;56301;56.864;60.554;2022-09-12T07:32:10;99034.81;;;21.52;54.16
69187;BME280;56301;56.864;60.554;2022-09-12T07:34:32;99024.91;;;21.53;54.60
69187;BME280;56301;56.864;60.554;2022-09-12T07:36:55;99026.63;;;21.54;54.19
69187;BME280;56301;56.864;60.554;2022-09-12T07:39:17;99032.00;;;21.54;53.72
69187;BME280;56301;56.864;60.554;2022-09-12T07:41:39;99031.00;;;21.55;54.17
69187;BME280;56301;56.864;60.554;2022-09-12T07:44:02;99025.59;;;21.55;54.12
69187;BME280;56301;56.864;60.554;2022-09-12T07:46:25;99025.59;;;21.55;53.79
69187;BME280;56301;56.864;60.554;2022-09-12T07:48:48;99030.16;;;21.54;53.98
69187;BME280;56301;56.864;60.554;2022-09-12T07:51:10;99033.50;;;21.56;54.76
69187;BME280;56301;56.864;60.554;2022-09-12T07:53:34;99038.06;;;21.56;54.14
69187;BME280;56301;56.864;60.554;2022-09-12T07:55:57;99030.81;;;21.56;54.04
69187;BME280;56301;56.864;60.554;2022-09-12T07:58:19;99039.91;;;21.55;54.15
69187;BME280;56301;56.864;60.554;2022-09-12T08:00:42;99036.38;;;21.55;54.23
69187;BME280;56301;56.864;60.554;2022-09-12T08:03:04;99041.75;;;21.55;54.18
69187;BME280;56301;56.864;60.554;2022-09-12T08:05:27;99035.53;;;21.54;54.33
69187;BME280;56301;56.864;60.554;2022-09-12T08:07:50;99045.47;;;21.54;54.27
69187;BME280;56301;56.864;60.554;2022-09-12T08:10:12;99049.00;;;21.54;54.93
69187;BME280;56301;56.864;60.554;2022-09-12T08:12:35;99039.06;;;21.55;54.26
69187;BME280;56301;56.864;60.554;2022-09-12T08:14:57;99047.13;;;21.55;53.92
69187;BME280;56301;56.864;60.554;2022-09-12T08:17:19;99040.91;;;21.54;54.35
69187;BME280;56301;56.864;60.554;2022-09-12T08:19:42;99044.44;;;21.55;54.17
69187;BME280;56301;56.864;60.554;2022-09-12T08:22:04;99040.91;;;21.54;54.00
69187;BME280;56301;56.864;60.554;2022-09-12T08:24:27;99040.06;;;21.54;54.44
69187;BME280;56301;56.864;60.554;2022-09-12T08:26:49;99031.00;;;21.55;53.92
69187;BME280;56301;56.864;60.554;2022-09-12T08:29:11;99052.53;;;21.55;53.91
69187;BME280;56301;56.864;60.554;2022-09-12T08:31:34;99039.91;;;21.55;53.93
69187;BME280;56301;56.864;60.554;2022-09-12T08:33:57;99036.38;;;21.55;53.82
69187;BME280;56301;56.864;60.554;2022-09-12T08:36:20;99033.69;;;21.55;54.25
69187;BME280;56301;56.864;60.554;2022-09-12T08:38:44;99036.38;;;21.55;54.31
69187;BME280;56301;56.864;60.554;2022-09-12T08:41:20;99046.13;;;21.56;53.93
69187;BME280;56301;56.864;60.554;2022-09-12T08:46:13;99037.22;;;21.55;54.25
69187;BME280;56301;56.864;60.554;2022-09-12T08:48:39;99040.75;;;21.56;54.07
69187;BME280;56301;56.864;60.554;2022-09-12T08:51:02;99036.19;;;21.56;54.40
69187;BME280;56301;56.864;60.554;2022-09-12T08:53:25;99045.81;;;21.59;54.19
69187;BME280;56301;56.864;60.554;2022-09-12T08:55:52;99043.31;;;21.57;54.58
69187;BME280;56301;56.864;60.554;2022-09-12T08:58:24;99037.75;;;21.59;54.39
69187;BME280;56301;56.864;60.554;2022-09-12T09:00:49;99044.81;;;21.60;54.32
69187;BME280;56301;56.864;60.554;2022-09-12T09:05:48;99034.03;;;21.60;54.31
69187;BME280;56301;56.864;60.554;2022-09-12T09:16:02;99046.53;;;21.61;55.04
69187;BME280;56301;56.864;60.554;2022-09-12T09:18:30;99037.44;;;21.62;54.75
69187;BME280;56301;56.864;60.554;2022-09-12T09:21:01;99042.81;;;21.62;54.97
69187;BME280;56301;56.864;60.554;2022-09-12T09:23:26;99037.44;;;21.62;54.89
69187;BME280;56301;56.864;60.554;2022-09-12T09:25:51;99037.44;;;21.62;55.36
69187;BME280;56301;56.864;60.554;2022-09-12T09:28:16;99040.13;;;21.62;54.75
69187;BME280;56301;56.864;60.554;2022-09-12T09:30:40;99044.50;;;21.63;54.86
69187;BME280;56301;56.864;60.554;2022-09-12T09:33:04;99038.28;;;21.62;54.93
69187;BME280;56301;56.864;60.554;2022-09-12T09:35:44;99036.44;;;21.63;54.93
69187;BME280;56301;56.864;60.554;2022-09-12T09:40:43;99040.81;;;21.64;54.79
69187;BME280;56301;56.864;60.554;2022-09-12T09:45:30;99038.19;;;21.72;54.83
69187;BME280;56301;56.864;60.554;2022-09-12T09:47:53;99047.25;;;21.71;55.05
69187;BME280;56301;56.864;60.554;2022-09-12T09:50:18;99031.75;;;21.65;55.22
69187;BME280;56301;56.864;60.554;2022-09-12T09:52:41;99041.03;;;21.71;55.40
69187;BME280;56301;56.864;60.554;2022-09-12T09:55:03;99041.19;;;21.69;55.59
69187;BME280;56301;56.864;60.554;2022-09-12T09:59:56;99042.22;;;21.68;54.91
69187;BME280;56301;56.864;60.554;2022-09-12T10:02:21;99048.44;;;21.69;55.01
69187;BME280;56301;56.864;60.554;2022-09-12T10:05:02;99048.44;;;21.69;55.10
69187;BME280;56301;56.864;60.554;2022-09-12T10:07:25;99047.59;;;21.68;55.69
69187;BME280;56301;56.864;60.554;2022-09-12T10:10:33;99049.41;;;21.68;55.55
69187;BME280;56301;56.864;60.554;2022-09-12T10:12:30;99045.03;;;21.67;56.18
69187;BME280;56301;56.864;60.554;2022-09-12T10:14:57;99051.25;;;21.67;55.19
69187;BME280;56301;56.864;60.554;2022-09-12T10:19:43;99055.97;;;21.65;55.11
69187;BME280;56301;56.864;60.554;2022-09-12T10:22:05;99054.13;;;21.66;54.57
69187;BME280;56301;56.864;60.554;2022-09-12T10:24:40;99058.66;;;21.65;54.92
69187;BME280;56301;56.864;60.554;2022-09-12T10:29:35;99056.97;;;21.64;55.03
69187;BME280;56301;56.864;60.554;2022-09-12T10:32:05;99049.88;;;21.63;55.04
69187;BME280;56301;56.864;60.554;2022-09-12T10:34:30;99056.13;;;21.63;54.56
69187;BME280;56301;56.864;60.554;2022-09-12T10:37:04;99049.06;;;21.62;55.09
69187;BME280;56301;56.864;60.554;2022-09-12T10:39:27;99048.22;;;21.62;54.43
69187;BME280;56301;56.864;60.554;2022-09-12T10:41:49;99049.88;;;21.63;54.46
69187;BME280;56301;56.864;60.554;2022-09-12T10:44:16;99050.91;;;21.62;54.14
69187;BME280;56301;56.864;60.554;2022-09-12T10:46:39;99055.44;;;21.61;54.01
69187;BME280;56301;56.864;60.554;2022-09-12T10:49:11;99057.28;;;21.61;54.42
69187;BME280;56301;56.864;60.554;2022-09-12T10:51:34;99063.53;;;21.61;53.97
69187;BME280;56301;56.864;60.554;2022-09-12T10:53:57;99056.44;;;21.60;53.75
69187;BME280;56301;56.864;60.554;2022-09-12T10:56:21;99061.81;;;21.60;54.70
69187;BME280;56301;56.864;60.554;2022-09-12T11:06:24;99053.91;;;21.59;54.02
69187;BME280;56301;56.864;60.554;2022-09-12T11:09:03;99054.75;;;21.59;53.96
69187;BME280;56301;56.864;60.554;2022-09-12T11:23:57;99069.38;;;21.57;54.51
69187;BME280;56301;56.864;60.554;2022-09-12T11:31:37;99065.69;;;21.58;53.52
69187;BME280;56301;56.864;60.554;2022-09-12T11:34:06;99074.78;;;21.57;53.73
69187;BME280;56301;56.864;60.554;2022-09-12T11:36:35;99072.06;;;21.57;54.01
69187;BME280;56301;56.864;60.554;2022-09-12T11:41:33;99064.13;;;21.55;53.29
69187;BME280;56301;56.864;60.554;2022-09-12T11:46:39;99068.50;;;21.56;53.67
69187;BME280;56301;56.864;60.554;2022-09-12T11:51:32;99070.38;;;21.56;53.71
69187;BME280;56301;56.864;60.554;2022-09-12T11:54:04;99069.53;;;21.55;53.78
69187;BME280;56301;56.864;60.554;2022-09-12T11:56:30;99069.69;;;21.54;53.57
69187;BME280;56301;56.864;60.554;2022-09-12T11:59:03;99069.69;;;21.54;53.67
69187;BME280;56301;56.864;60.554;2022-09-12T12:01:34;99075.06;;;21.54;53.71
69187;BME280;56301;56.864;60.554;2022-09-12T12:04:00;99084.13;;;21.53;54.10
69187;BME280;56301;56.864;60.554;2022-09-12T12:06:31;99083.28;;;21.52;54.19
69187;BME280;56301;56.864;60.554;2022-09-12T12:08:54;99078.06;;;21.51;53.76
69187;BME280;56301;56.864;60.554;2022-09-12T12:11:26;99068.69;;;21.55;53.83
69187;BME280;56301;56.864;60.554;2022-09-12T12:13:55;99072.44;;;21.62;54.07
69187;BME280;56301;56.864;60.554;2022-09-12T12:18:41;99069.31;;;21.75;54.42
69187;BME280;56301;56.864;60.554;2022-09-12T12:21:38;99077.94;;;21.78;54.65
69187;BME280;56301;56.864;60.554;2022-09-12T12:26:39;99086.41;;;21.83;54.44
69187;BME280;56301;56.864;60.554;2022-09-12T12:29:02;99087.97;;;21.86;54.44
69187;BME280;56301;56.864;60.554;2022-09-12T12:31:25;99094.63;;;21.82;54.57
69187;BME280;56301;56.864;60.554;2022-09-12T12:36:27;99109.59;;;21.76;54.85
69187;BME280;56301;56.864;60.554;2022-09-12T12:38:50;99100.50;;;21.77;54.97
69187;BME280;56301;56.864;60.554;2022-09-12T12:43:38;99108.97;;;21.82;54.79
69187;BME280;56301;56.864;60.554;2022-09-12T12:46:01;99106.81;;;21.86;54.82
69187;BME280;56301;56.864;60.554;2022-09-12T12:48:24;99101.97;;;21.90;54.83
69187;BME280;56301;56.864;60.554;2022-09-12T12:50:47;99096.72;;;21.88;55.22
69187;BME280;56301;56.864;60.554;2022-09-12T12:53:21;99104.25;;;21.84;55.14
69187;BME280;56301;56.864;60.554;2022-09-12T12:55:46;99108.28;;;21.80;54.93
69187;BME280;56301;56.864;60.554;2022-09-12T13:00:45;99101.88;;;21.81;54.21
69187;BME280;56301;56.864;60.554;2022-09-12T13:03:28;99099.88;;;21.83;53.88
69187;BME280;56301;56.864;60.554;2022-09-12T13:05:52;99094.19;;;21.86;54.05
69187;BME280;56301;56.864;60.554;2022-09-12T13:10:52;99102.63;;;21.92;54.33
69187;BME280;56301;56.864;60.554;2022-09-12T13:13:21;99098.38;;;21.89;54.73
69187;BME280;56301;56.864;60.554;2022-09-12T13:15:46;99113.19;;;21.85;54.08
69187;BME280;56301;56.864;60.554;2022-09-12T13:18:09;99105.41;;;21.82;54.78
69187;BME280;56301;56.864;60.554;2022-09-12T13:20:35;99111.66;;;21.82;54.26
69187;BME280;56301;56.864;60.554;2022-09-12T13:22:59;99104.25;;;21.84;54.15
69187;BME280;56301;56.864;60.554;2022-09-12T13:30:21;99106.16;;;21.92;55.00
69187;BME280;56301;56.864;60.554;2022-09-12T13:32:44;99110.53;;;21.93;54.24
69187;BME280;56301;56.864;60.554;2022-09-12T13:35:14;99110.03;;;21.90;54.50
69187;BME280;56301;56.864;60.554;2022-09-12T13:42:40;99111.31;;;21.85;54.73
69187;BME280;56301;56.864;60.554;2022-09-12T13:47:35;99117.09;;;21.91;54.13
69187;BME280;56301;56.864;60.554;2022-09-12T13:49:59;99119.63;;;21.92;54.50
69187;BME280;56301;56.864;60.554;2022-09-12T13:52:24;99113.09;;;21.95;54.91
69187;BME280;56301;56.864;60.554;2022-09-12T13:54:48;99116.81;;;21.94;54.79
69187;BME280;56301;56.864;60.554;2022-09-12T13:59:53;99129.88;;;21.88;54.64
69187;BME280;56301;56.864;60.554;2022-09-12T14:02:19;99126.50;;;21.86;54.28
69187;BME280;56301;56.864;60.554;2022-09-12T14:04:44;99129.03;;;21.88;54.60
69187;BME280;56301;56.864;60.554;2022-09-12T14:07:15;99122.50;;;21.91;54.01
69187;BME280;56301;56.864;60.554;2022-09-12T14:09:42;99123.16;;;21.93;54.23
69187;BME280;56301;56.864;60.554;2022-09-12T14:12:47;99125.56;;;21.96;54.50
69187;BME280;56301;56.864;60.554;2022-09-12T14:14:51;99127.25;;;21.97;54.72
69187;BME280;56301;56.864;60.554;2022-09-12T14:17:35;99125.88;;;21.93;53.86
69187;BME280;56301;56.864;60.554;2022-09-12T14:20:00;99124.50;;;21.88;53.97
69187;BME280;56301;56.864;60.554;2022-09-12T14:22:25;99124.78;;;21.85;53.22
69187;BME280;56301;56.864;60.554;2022-09-12T14:24:48;99125.50;;;21.87;53.41
69187;BME280;56301;56.864;60.554;2022-09-12T14:27:11;99124.34;;;21.90;53.64
69187;BME280;56301;56.864;60.554;2022-09-12T14:29:34;99135.66;;;21.94;53.99
69187;BME280;56301;56.864;60.554;2022-09-12T14:32:00;99128.97;;;21.98;53.81
69187;BME280;56301;56.864;60.554;2022-09-12T14:34:23;99125.25;;;21.99;53.08
69187;BME280;56301;56.864;60.554;2022-09-12T14:36:47;99138.88;;;21.97;53.03
69187;BME280;56301;56.864;60.554;2022-09-12T14:39:20;99130.28;;;21.94;53.18
69187;BME280;56301;56.864;60.554;2022-09-12T14:41:44;99142.38;;;21.90;53.30
69187;BME280;56301;56.864;60.554;2022-09-12T14:44:14;99142.69;;;21.86;53.10
69187;BME280;56301;56.864;60.554;2022-09-12T14:46:38;99131.59;;;21.90;53.87
69187;BME280;56301;56.864;60.554;2022-09-12T14:51:34;99147.09;;;21.96;54.33
69187;BME280;56301;56.864;60.554;2022-09-12T14:53:58;99153.88;;;22.00;53.90